Historyczne dane pomiarowe

Dodano dane terminowe – wersja testowa.

Dane z okresu 1951-2019

Wersja bazy: 1.34 [2019-03-16, lista zmian], aktualizacja planowana na 2019-04-15

Dane meteo z obszaru Polski uzyskane na podstawie danych udostępnionych przez Instytut Meteorologii i Gospodarki Wodnej – Państwowy Instytut Badawczy.

 

Wybierz Datę:    

       

TemperaturaWilgotnośćWiatrCiśnienieOpadyŚniegCzas trwania zjawisk
 Stacja t tx tn tng RH VA  wxwx mslp ppp RRR   cm mm wxwxwxwxwxwxwx
2003-07-16 21.4 29.4 13.7 12.4 67.3- 0.7 1.7---- 0.0------------
2003-07-17 23.2 31.0 16.0 13.9 64.3- 2.3 1.3---- 0.0------------
2003-07-18 21.4 26.3 17.0 15.4 72.5- 7.3 2.7---- 0.0------------
2003-07-19 20.3 23.0 18.0 17.8 83.8- 7.7 1.3---- 0.0------------
2003-07-20 22.7 29.2 17.3 15.5 71.5- 4.3 0.3---- 0.0------------
2003-07-21 23.8 32.3 15.9 13.8 64.3- 2.7 2.0---- 0.0------------
2003-07-22 23.1 27.6 18.6 16.9 70.3- 6.7 1.3---- 16.7------------
2003-07-23 21.2 28.2 15.8 15.3 81.0- 6.7 1.0---- 0.0------------
2003-07-24 22.7 29.6 17.3 16.5 67.5- 2.7 1.3---- 0.0------------
2003-07-25 21.5 26.0 17.6 16.3 73.5- 7.7 1.3---- 0.0------------
2003-07-26 23.1 29.1 17.9 17.1 69.8- 4.0 1.0---- 0.0------------
2003-07-27 25.2 33.4 17.8 16.3 61.3- 2.0 1.3---- 0.0------------
2003-07-28 23.9 31.8 19.7 18.3 85.0- 5.3 1.0---- 10.9------------
2003-07-29 18.6 21.5 17.2 16.8 85.8- 8.0 1.3---- 0.2------------
2003-07-30 19.9 25.7 17.6 16.9 87.8- 7.3 0.7---- 23.5------------
2003-07-31 20.0 26.5 16.8 16.0 90.0- 7.0 1.3---- 2.5------------
2003-08-01 21.5 27.6 16.9 15.8 79.3- 5.0 0.7---- 0.3------------
2003-08-02 22.6 30.0 16.9 16.8 69.8- 4.7 1.7---- 0.2------------
2003-08-03 23.3 30.1 17.5 15.8 65.3- 2.0 0.7---- 0.0------------
2003-08-04 22.7 30.5 17.2 15.7 72.8- 1.7 0.7---- 0.3------------
2003-08-05 22.9 30.0 18.0 16.5 65.3- 1.3 1.3---- 0.0------------
2003-08-06 20.0 27.5 13.7 12.5 57.8- 1.7 1.0---- 0.0------------
2003-08-07 19.9 28.0 13.3 11.8 55.5- 1.3 1.0---- 0.0------------
2003-08-08 20.3 28.8 12.8 11.5 56.8- 4.0 1.0---- 0.0------------
2003-08-09 21.0 28.9 14.9 13.2 57.8- 2.7 1.3---- 0.0------------
2003-08-10 20.3 27.5 15.2 13.7 57.3- 1.0 1.0---- 0.0------------
2003-08-11 17.2 24.1 11.6 10.4 57.8- 1.7 1.3---- 0.0------------
2003-08-12 18.9 26.7 10.8 10.0 58.5- 3.3 1.3---- 0.0------------
2003-08-13 23.2 33.1 14.6 12.9 58.3- 5.0 1.3---- 0.0------------
2003-08-14 24.5 30.7 20.5 19.3 58.8- 2.7 2.0---- 11.3------------
139.1 ms

 

Źródłem pochodzenia danych jest Instytut Meteorologii i Gospodarki Wodnej – Państwowy Instytut Badawczy. Dane Instytutu Meteorologii i Gospodarki Wodnej – Państwowego Instytutu Badawczego zostały przetworzone.

Dane źródłowe można odnaleźć na stronie https://dane.imgw.pl